sensor_id;sensor_type;location;lat;lon;timestamp;pressure;altitude;pressure_sealevel;temperature;humidity
55014;BME280;40916;51.632;5.552;2023-02-15T00:00:44;1024.8976368485446;;;0.9823971648179715;0
55014;BME280;40916;51.632;5.552;2023-02-15T00:01:44;1024.912057403887;;;0.9446817076312506;0
55014;BME280;40916;51.632;5.552;2023-02-15T00:02:44;1024.9307518249327;;;0.9144970797640113;0
55014;BME280;40916;51.632;5.552;2023-02-15T00:03:44;1024.903912335598;;;0.861647702290437;0
55014;BME280;40916;51.632;5.552;2023-02-15T00:04:44;1024.8496697389803;;;0.8238776298848016;0
55014;BME280;40916;51.632;5.552;2023-02-15T00:05:44;1024.856106693776;;;0.8163215604276566;0
55014;BME280;40916;51.632;5.552;2023-02-15T00:06:44;1024.778136483273;;;0.7936492375685944;0
55014;BME280;40916;51.632;5.552;2023-02-15T00:07:45;1024.853272351861;;;0.8238776298848016;0
55014;BME280;40916;51.632;5.552;2023-02-15T00:08:45;1024.8383049602628;;;0.8540950569542254;0
55014;BME280;40916;51.632;5.552;2023-02-15T00:09:45;1024.837706022832;;;0.8843015348875696;0
55014;BME280;40916;51.632;5.552;2023-02-15T00:10:45;1024.763524985723;;;0.8994006729541866;0
55014;BME280;40916;51.632;5.552;2023-02-15T00:11:45;1024.7895359234815;;;0.9446817076312506;0
55014;BME280;40916;51.632;5.552;2023-02-15T00:12:45;1024.7909379256066;;;0.9974785855019164;0
55014;BME280;40916;51.632;5.552;2023-02-15T00:13:45;1024.7123535945016;;;1.0050182763720414;0
55014;BME280;40916;51.632;5.552;2023-02-15T00:14:45;1024.7576991753326;;;1.0276332740837972;0
55014;BME280;40916;51.632;5.552;2023-02-15T00:15:45;1024.8354655938926;;;1.0502421646722198;0
55014;BME280;40916;51.632;5.552;2023-02-15T00:16:46;1024.769205886981;;;1.0351702491843469;0
55014;BME280;40916;51.632;5.552;2023-02-15T00:17:45;1024.7339778853284;;;1.0050182763720414;0
55014;BME280;40916;51.632;5.552;2023-02-15T00:18:46;1024.795246731699;;;1.0050182763720414;0
55014;BME280;40916;51.632;5.552;2023-02-15T00:19:46;1024.8341858221615;;;0.9974785855019164;0
55014;BME280;40916;51.632;5.552;2023-02-15T00:20:46;1024.7880930955075;;;0.9673130238803793;0
55014;BME280;40916;51.632;5.552;2023-02-15T00:21:46;1024.7938624466083;;;0.9522261606929732;0
55014;BME280;40916;51.632;5.552;2023-02-15T00:22:46;1024.776541558905;;;0.922044259574264;0
55014;BME280;40916;51.632;5.552;2023-02-15T00:23:46;1024.7858826659071;;;0.9069492176408431;0
55014;BME280;40916;51.632;5.552;2023-02-15T00:24:46;1024.7771969414744;;;0.8918514454533657;0
55014;BME280;40916;51.632;5.552;2023-02-15T00:25:46;1024.7749587343546;;;0.8691996635572217;0
55014;BME280;40916;51.632;5.552;2023-02-15T00:26:47;1024.738929033687;;;0.8691996635572217;0
55014;BME280;40916;51.632;5.552;2023-02-15T00:27:47;1024.6985463827486;;;0.861647702290437;0
55014;BME280;40916;51.632;5.552;2023-02-15T00:28:47;1024.766247930994;;;0.8540950569542254;0
55014;BME280;40916;51.632;5.552;2023-02-15T00:29:47;1024.7049994920637;;;0.8540950569542254;0
55014;BME280;40916;51.632;5.552;2023-02-15T00:30:47;1024.712770534193;;;0.8238776298848016;0
55014;BME280;40916;51.632;5.552;2023-02-15T00:31:47;1024.7228123117566;;;0.8163215604276566;0
55014;BME280;40916;51.632;5.552;2023-02-15T00:32:47;1024.6453346330286;;;0.7634098638632594;0
55014;BME280;40916;51.632;5.552;2023-02-15T00:33:47;1024.6597431372043;;;0.7634098638632594;0
55014;BME280;40916;51.632;5.552;2023-02-15T00:34:47;1024.6321640156596;;;0.740723117319142;0
55014;BME280;40916;51.632;5.552;2023-02-15T00:35:47;1024.592542626277;;;0.740723117319142;0
55014;BME280;40916;51.632;5.552;2023-02-15T00:36:47;1024.6193345202505;;;0.7558483027001763;0
55014;BME280;40916;51.632;5.552;2023-02-15T00:37:48;1024.5544973705148;;;0.7558483027001763;0
55014;BME280;40916;51.632;5.552;2023-02-15T00:38:48;1024.588482724733;;;0.7709707376787982;0
55014;BME280;40916;51.632;5.552;2023-02-15T00:39:48;1024.538830804334;;;0.7785309243996998;0
55014;BME280;40916;51.632;5.552;2023-02-15T00:40:51;1024.5619944690857;;;0.7936492375685944;0
55014;BME280;40916;51.632;5.552;2023-02-15T00:41:48;1024.5534926466785;;;0.8163215604276566;0
55014;BME280;40916;51.632;5.552;2023-02-15T00:42:48;1024.507422036444;;;0.8238776298848016;0
55014;BME280;40916;51.632;5.552;2023-02-15T00:43:48;1024.5752970245499;;;0.8540950569542254;0
55014;BME280;40916;51.632;5.552;2023-02-15T00:44:48;1024.5083392201002;;;0.8691996635572217;0
55014;BME280;40916;51.632;5.552;2023-02-15T00:45:48;1024.5364156296737;;;0.861647702290437;0
55014;BME280;40916;51.632;5.552;2023-02-15T00:46:48;1024.5876044157094;;;0.8691996635572217;0
55014;BME280;40916;51.632;5.552;2023-02-15T00:47:49;1024.5557745300096;;;0.8389877130677021;0
55014;BME280;40916;51.632;5.552;2023-02-15T00:48:49;1024.4899472224408;;;0.7936492375685944;0
55014;BME280;40916;51.632;5.552;2023-02-15T00:49:49;1024.450820005578;;;0.7634098638632594;0
55014;BME280;40916;51.632;5.552;2023-02-15T00:50:50;1024.4020680443782;;;0.7104644872449413;0
55014;BME280;40916;51.632;5.552;2023-02-15T00:51:49;1024.4248710330576;;;0.6877632798021409;0
55014;BME280;40916;51.632;5.552;2023-02-15T00:52:49;1024.48726272396;;;0.6650558634076731;0
55014;BME280;40916;51.632;5.552;2023-02-15T00:53:49;1024.3593083243695;;;0.581742104484583;0
55014;BME280;40916;51.632;5.552;2023-02-15T00:54:49;1024.4279255583347;;;0.5514254063972253;0
55014;BME280;40916;51.632;5.552;2023-02-15T00:55:49;1024.3866082348222;;;0.5362628915013339;0
55014;BME280;40916;51.632;5.552;2023-02-15T00:56:50;1024.3632840253406;;;0.5210975966342488;0
55014;BME280;40916;51.632;5.552;2023-02-15T00:57:50;1024.3487160259729;;;0.5514254063972253;0
55014;BME280;40916;51.632;5.552;2023-02-15T00:58:50;1024.3512631752824;;;0.5741639707850084;0
55014;BME280;40916;51.632;5.552;2023-02-15T00:59:50;1024.3803699995283;;;0.6423422311927425;0
55014;BME280;40916;51.632;5.552;2023-02-15T01:00:50;1024.2755948508175;;;0.6726256925131402;0
55014;BME280;40916;51.632;5.552;2023-02-15T01:01:50;1024.357627795067;;;0.7331594925947584;0
55014;BME280;40916;51.632;5.552;2023-02-15T01:02:50;1024.277918394211;;;0.7634098638632594;0
55014;BME280;40916;51.632;5.552;2023-02-15T01:03:50;1024.3849336356413;;;0.8238776298848016;0
55014;BME280;40916;51.632;5.552;2023-02-15T01:04:50;1024.3799937038252;;;0.8465417272971614;0
55014;BME280;40916;51.632;5.552;2023-02-15T01:05:50;1024.2891732979017;;;0.8389877130677021;0
55014;BME280;40916;51.632;5.552;2023-02-15T01:06:51;1024.2711597237108;;;0.8389877130677021;0
55014;BME280;40916;51.632;5.552;2023-02-15T01:07:51;1024.3041557476292;;;0.8087648053907017;0
55014;BME280;40916;51.632;5.552;2023-02-15T01:08:51;1024.2810104656535;;;0.7936492375685944;0
55014;BME280;40916;51.632;5.552;2023-02-15T01:09:51;1024.2923268517704;;;0.7634098638632594;0
55014;BME280;40916;51.632;5.552;2023-02-15T01:10:51;1024.2755720088671;;;0.740723117319142;0
55014;BME280;40916;51.632;5.552;2023-02-15T01:11:51;1024.3076255808462;;;0.7028981075572744;0
55014;BME280;40916;51.632;5.552;2023-02-15T01:12:51;1024.291976711468;;;0.6574853436555728;0
55014;BME280;40916;51.632;5.552;2023-02-15T01:13:52;1024.2474286101549;;;0.6120477072944617;0
55014;BME280;40916;51.632;5.552;2023-02-15T01:14:51;1024.250446062407;;;0.5741639707850084;0
55014;BME280;40916;51.632;5.552;2023-02-15T01:15:52;1024.1364721843856;;;0.5210975966342488;0
55014;BME280;40916;51.632;5.552;2023-02-15T01:16:52;1024.231948694941;;;0.5059295197411515;0
55014;BME280;40916;51.632;5.552;2023-02-15T01:17:52;1024.1815477698235;;;0.5059295197411515;0
55014;BME280;40916;51.632;5.552;2023-02-15T01:18:52;1024.168873848216;;;0.5210975966342488;0
55014;BME280;40916;51.632;5.552;2023-02-15T01:19:52;1024.1635474448458;;;0.5059295197411515;0
55014;BME280;40916;51.632;5.552;2023-02-15T01:20:52;1024.1669893681676;;;0.5362628915013339;0
55014;BME280;40916;51.632;5.552;2023-02-15T01:21:52;1024.1426407207987;;;0.5438444963173303;0
55014;BME280;40916;51.632;5.552;2023-02-15T01:22:52;1024.1767442018195;;;0.5590056219975494;0
55014;BME280;40916;51.632;5.552;2023-02-15T01:23:52;1024.222482823803;;;0.581742104484583;0
55014;BME280;40916;51.632;5.552;2023-02-15T01:24:52;1024.2025534933064;;;0.5968962917755825;0
55014;BME280;40916;51.632;5.552;2023-02-15T01:25:52;1024.1726371445473;;;0.6196223762784072;0
55014;BME280;40916;51.632;5.552;2023-02-15T01:26:53;1024.1222235997095;;;0.6196223762784072;0
55014;BME280;40916;51.632;5.552;2023-02-15T01:27:53;1024.126318278182;;;0.6574853436555728;0
55014;BME280;40916;51.632;5.552;2023-02-15T01:28:53;1024.1647581987206;;;0.680194831226494;0
55014;BME280;40916;51.632;5.552;2023-02-15T01:29:53;1024.1915742880894;;;0.6953310384943521;0
55014;BME280;40916;51.632;5.552;2023-02-15T01:30:53;1024.1227170105767;;;0.6574853436555728;0
55014;BME280;40916;51.632;5.552;2023-02-15T01:31:53;1024.0814744949887;;;0.6423422311927425;0
55014;BME280;40916;51.632;5.552;2023-02-15T01:32:53;1024.1590580427192;;;0.6271963530859388;0
55014;BME280;40916;51.632;5.552;2023-02-15T01:33:53;1024.0648898650177;;;0.5893195447294737;0
55014;BME280;40916;51.632;5.552;2023-02-15T01:34:53;1024.0468862459165;;;0.5893195447294737;0
55014;BME280;40916;51.632;5.552;2023-02-15T01:35:56;1024.1362907346722;;;0.5514254063972253;0
55014;BME280;40916;51.632;5.552;2023-02-15T01:36:54;1023.9674138910725;;;0.49075865876519487;0
55014;BME280;40916;51.632;5.552;2023-02-15T01:37:54;1024.0736677133668;;;0.47558501164750666;0
55014;BME280;40916;51.632;5.552;2023-02-15T01:38:54;1024.098944017073;;;0.4452293507412932;0
55014;BME280;40916;51.632;5.552;2023-02-15T01:39:54;1024.042290332879;;;0.3920800580178714;0
55014;BME280;40916;51.632;5.552;2023-02-15T01:40:54;1024.0215731786634;;;0.36929129648287073;0
55014;BME280;40916;51.632;5.552;2023-02-15T01:41:54;1023.9891178010931;;;0.33889647048930627;0
55014;BME280;40916;51.632;5.552;2023-02-15T01:42:55;1024.0926785341371;;;0.3920800580178714;0
55014;BME280;40916;51.632;5.552;2023-02-15T01:43:55;1024.0503909089912;;;0.3996749117302798;0
55014;BME280;40916;51.632;5.552;2023-02-15T01:44:55;1024.0431751871965;;;0.4300473328248593;0
55014;BME280;40916;51.632;5.552;2023-02-15T01:45:55;1023.9459898609701;;;0.4300473328248593;0
55014;BME280;40916;51.632;5.552;2023-02-15T01:46:55;1024.0161536971084;;;0.4452293507412932;0
55014;BME280;40916;51.632;5.552;2023-02-15T01:47:56;1024.044950323294;;;0.4452293507412932;0
55014;BME280;40916;51.632;5.552;2023-02-15T01:48:56;1024.0845456962218;;;0.4452293507412932;0
55014;BME280;40916;51.632;5.552;2023-02-15T01:49:57;1023.9882397268032;;;0.4528193124464508;0
55014;BME280;40916;51.632;5.552;2023-02-15T01:50:56;1024.0539143146295;;;0.4604085763271861;0
55014;BME280;40916;51.632;5.552;2023-02-15T01:51:55;1023.9531887711719;;;0.4300473328248593;0
55014;BME280;40916;51.632;5.552;2023-02-15T01:52:56;1024.0125541193486;;;0.4452293507412932;0
55014;BME280;40916;51.632;5.552;2023-02-15T01:53:56;1023.9190120959132;;;0.4148625205108729;0
55014;BME280;40916;51.632;5.552;2023-02-15T01:54:55;1023.9730021113244;;;0.4148625205108729;0
55014;BME280;40916;51.632;5.552;2023-02-15T01:55:57;1023.998197460634;;;0.4148625205108729;0
55014;BME280;40916;51.632;5.552;2023-02-15T01:56:57;1023.9748073766793;;;0.3996749117302798;0
55014;BME280;40916;51.632;5.552;2023-02-15T01:57:56;1023.965804556788;;;0.38448450441199356;0
55014;BME280;40916;51.632;5.552;2023-02-15T01:58:56;1024.0215731786634;;;0.36929129648287073;0
55014;BME280;40916;51.632;5.552;2023-02-15T01:59:56;1024.022426804169;;;0.34649622890383114;0
55014;BME280;40916;51.632;5.552;2023-02-15T02:00:56;1023.9638209240691;;;0.3084904171234726;0
55014;BME280;40916;51.632;5.552;2023-02-15T02:01:57;1023.9636722844535;;;0.2780731197263435;0
55014;BME280;40916;51.632;5.552;2023-02-15T02:02:56;1023.9509884207504;;;0.2628602493010881;0
55014;BME280;40916;51.632;5.552;2023-02-15T02:03:57;1023.9140592181157;;;0.25525275774292666;0
55014;BME280;40916;51.632;5.552;2023-02-15T02:04:57;1023.9187723624278;;;0.29328317497129675;0
55014;BME280;40916;51.632;5.552;2023-02-15T02:05:57;1023.9071742271037;;;0.3160929839415587;0
55014;BME280;40916;51.632;5.552;2023-02-15T02:06:57;1023.9297743977066;;;0.35409528586772154;0
55014;BME280;40916;51.632;5.552;2023-02-15T02:07:58;1023.9055224707369;;;0.3920800580178714;0
55014;BME280;40916;51.632;5.552;2023-02-15T02:08:57;1023.7678401893171;;;0.4148625205108729;0
55014;BME280;40916;51.632;5.552;2023-02-15T02:09:57;1023.8452051660654;;;0.4300473328248593;0
55014;BME280;40916;51.632;5.552;2023-02-15T02:10:57;1023.7642408606604;;;0.4148625205108729;0
55014;BME280;40916;51.632;5.552;2023-02-15T02:11:57;1023.8649715294359;;;0.4452293507412932;0
55014;BME280;40916;51.632;5.552;2023-02-15T02:12:58;1023.8514535945413;;;0.4528193124464508;0
55014;BME280;40916;51.632;5.552;2023-02-15T02:13:57;1023.836174948889;;;0.4452293507412932;0
55014;BME280;40916;51.632;5.552;2023-02-15T02:14:58;1023.6994529643478;;;0.4148625205108729;0
55014;BME280;40916;51.632;5.552;2023-02-15T02:16:00;1023.737259459775;;;0.3996749117302798;0
55014;BME280;40916;51.632;5.552;2023-02-15T02:16:58;1023.7876483703229;;;0.3996749117302798;0
55014;BME280;40916;51.632;5.552;2023-02-15T02:18:02;1023.6616762736094;;;0.36929129648287073;0
55014;BME280;40916;51.632;5.552;2023-02-15T02:19:01;1023.730056597802;;;0.36929129648287073;0
55014;BME280;40916;51.632;5.552;2023-02-15T02:20:07;1023.6733770750574;;;0.3768882506534368;0
55014;BME280;40916;51.632;5.552;2023-02-15T02:21:01;1023.7480570815817;;;0.3996749117302798;0
55014;BME280;40916;51.632;5.552;2023-02-15T02:23:04;1023.7066516176683;;;0.4148625205108729;0
55014;BME280;40916;51.632;5.552;2023-02-15T02:24:03;1023.7408211120651;;;0.4300473328248593;0
55014;BME280;40916;51.632;5.552;2023-02-15T02:25:03;1023.7677830993558;;;0.4452293507412932;0
55014;BME280;40916;51.632;5.552;2023-02-15T02:26:12;1023.7398650297262;;;0.4528193124464508;0
55014;BME280;40916;51.632;5.552;2023-02-15T02:27:32;1023.7164158518591;;;0.4679971426415612;0
55014;BME280;40916;51.632;5.552;2023-02-15T02:28:01;1023.700154196792;;;0.4831721836028251;0
55014;BME280;40916;51.632;5.552;2023-02-15T02:29:05;1023.7550177495884;;;0.49075865876519487;0
55014;BME280;40916;51.632;5.552;2023-02-15T02:30:13;1023.6912176103492;;;0.4679971426415612;0
55014;BME280;40916;51.632;5.552;2023-02-15T02:31:05;1023.8046583765918;;;0.4528193124464508;0
55014;BME280;40916;51.632;5.552;2023-02-15T02:32:05;1023.6904697771433;;;0.3996749117302798;0
55014;BME280;40916;51.632;5.552;2023-02-15T02:34:01;1023.7461634174991;;;0.3236948482683424;0
55014;BME280;40916;51.632;5.552;2023-02-15T02:34:03;1023.7147534578528;;;0.3616936416408265;0
55014;BME280;40916;51.632;5.552;2023-02-15T02:35:01;1023.6606204998409;;;0.3008871475535919;0
55014;BME280;40916;51.632;5.552;2023-02-15T02:36:02;1023.6894078632242;;;0.3008871475535919;0
55014;BME280;40916;51.632;5.552;2023-02-15T02:37:03;1023.7137759875621;;;0.3236948482683424;0
55014;BME280;40916;51.632;5.552;2023-02-15T02:38:03;1023.6669941606269;;;0.3236948482683424;0
55014;BME280;40916;51.632;5.552;2023-02-15T02:39:04;1023.6787099292804;;;0.33129601036418066;0
55014;BME280;40916;51.632;5.552;2023-02-15T02:40:03;1023.6112515395445;;;0.33889647048930627;0
55014;BME280;40916;51.632;5.552;2023-02-15T02:41:03;1023.6148502599146;;;0.33889647048930627;0
55014;BME280;40916;51.632;5.552;2023-02-15T02:42:01;1023.6328438634765;;;0.33889647048930627;0
55014;BME280;40916;51.632;5.552;2023-02-15T02:43:01;1023.6220477009973;;;0.33889647048930627;0
55014;BME280;40916;51.632;5.552;2023-02-15T02:44:02;1023.5527568263631;;;0.33129601036418066;0
55014;BME280;40916;51.632;5.552;2023-02-15T02:45:02;1023.5392771560886;;;0.33889647048930627;0
55014;BME280;40916;51.632;5.552;2023-02-15T02:46:02;1023.510412093383;;;0.3084904171234726;0
55014;BME280;40916;51.632;5.552;2023-02-15T02:47:02;1023.5698319662635;;;0.3236948482683424;0
55014;BME280;40916;51.632;5.552;2023-02-15T02:48:02;1023.4924197168109;;;0.3084904171234726;0
55014;BME280;40916;51.632;5.552;2023-02-15T02:49:01;1023.4636319202249;;;0.3084904171234726;0
55014;BME280;40916;51.632;5.552;2023-02-15T02:50:03;1023.4735028157268;;;0.3008871475535919;0
55014;BME280;40916;51.632;5.552;2023-02-15T02:51:02;1023.4896372767706;;;0.2856784991158392;0
55014;BME280;40916;51.632;5.552;2023-02-15T02:52:03;1023.4805727131911;;;0.27046703654180604;0
55014;BME280;40916;51.632;5.552;2023-02-15T02:53:02;1023.4481891640407;;;0.27046703654180604;0
55014;BME280;40916;51.632;5.552;2023-02-15T02:54:03;1023.4822921748162;;;0.25525275774292666;0
55014;BME280;40916;51.632;5.552;2023-02-15T02:55:02;1023.4146925432719;;;0.2324260545492045;0
55014;BME280;40916;51.632;5.552;2023-02-15T02:56:03;1023.4785028853777;;;0.22481574310604557;0
55014;BME280;40916;51.632;5.552;2023-02-15T02:57:03;1023.4127894465905;;;0.21720472603717766;0
55014;BME280;40916;51.632;5.552;2023-02-15T02:58:03;1023.3588232475277;;;0.21720472603717766;0
55014;BME280;40916;51.632;5.552;2023-02-15T02:59:03;1023.3902477903675;;;0.20959300308057038;0
55014;BME280;40916;51.632;5.552;2023-02-15T03:00:03;1023.3955245940728;;;0.19436743845529847;0
55014;BME280;40916;51.632;5.552;2023-02-15T03:01:03;1023.4235826894807;;;0.21720472603717766;0
55014;BME280;40916;51.632;5.552;2023-02-15T03:02:04;1023.3840074705655;;;0.21720472603717766;0
55014;BME280;40916;51.632;5.552;2023-02-15T03:03:03;1023.3336390300747;;;0.21720472603717766;0
55014;BME280;40916;51.632;5.552;2023-02-15T03:04:03;1023.3571266632707;;;0.2324260545492045;0
55014;BME280;40916;51.632;5.552;2023-02-15T03:05:04;1023.4417709386126;;;0.2476445616059273;0
55014;BME280;40916;51.632;5.552;2023-02-15T03:06:04;1023.3859095996236;;;0.2324260545492045;0
55014;BME280;40916;51.632;5.552;2023-02-15T03:07:04;1023.3525796055479;;;0.22481574310604557;0
55014;BME280;40916;51.632;5.552;2023-02-15T03:08:03;1023.4110946749167;;;0.2324260545492045;0
55014;BME280;40916;51.632;5.552;2023-02-15T03:09:06;1023.3840074705655;;;0.21720472603717766;0
55014;BME280;40916;51.632;5.552;2023-02-15T03:10:04;1023.3271708694887;;;0.19436743845529847;0
55014;BME280;40916;51.632;5.552;2023-02-15T03:11:04;1023.3873663080075;;;0.18675359626190868;0
55014;BME280;40916;51.632;5.552;2023-02-15T03:12:04;1023.3314712661816;;;0.17152379080081204;0
55014;BME280;40916;51.632;5.552;2023-02-15T03:13:04;1023.3801712986224;;;0.18675359626190868;0
55014;BME280;40916;51.632;5.552;2023-02-15T03:14:04;1023.3343659964547;;;0.19436743845529847;0
55014;BME280;40916;51.632;5.552;2023-02-15T03:15:05;1023.3533137047687;;;0.20198057397404057;0
55014;BME280;40916;51.632;5.552;2023-02-15T03:16:04;1023.3300412851802;;;0.21720472603717766;0
55014;BME280;40916;51.632;5.552;2023-02-15T03:17:04;1023.3048570741105;;;0.21720472603717766;0
55014;BME280;40916;51.632;5.552;2023-02-15T03:18:04;1023.2192440197028;;;0.19436743845529847;0
55014;BME280;40916;51.632;5.552;2023-02-15T03:19:05;1023.1966987133262;;;0.18675359626190868;0
55014;BME280;40916;51.632;5.552;2023-02-15T03:20:07;1023.199333541017;;;0.17913904713131146;0
55014;BME280;40916;51.632;5.552;2023-02-15T03:21:05;1023.2588171860478;;;0.19436743845529847;0
55014;BME280;40916;51.632;5.552;2023-02-15T03:22:05;1023.2542587081753;;;0.18675359626190868;0
55014;BME280;40916;51.632;5.552;2023-02-15T03:23:06;1023.2146862085824;;;0.18675359626190868;0
55014;BME280;40916;51.632;5.552;2023-02-15T03:24:06;1023.2974287234583;;;0.18675359626190868;0
55014;BME280;40916;51.632;5.552;2023-02-15T03:25:08;1023.266718407178;;;0.17152379080081204;0
55014;BME280;40916;51.632;5.552;2023-02-15T03:26:05;1023.2359993801476;;;0.15629115548870942;0
55014;BME280;40916;51.632;5.552;2023-02-15T03:27:06;1023.2467911549065;;;0.15629115548870942;0
55014;BME280;40916;51.632;5.552;2023-02-15T03:28:06;1023.2216103487314;;;0.15629115548870942;0
55014;BME280;40916;51.632;5.552;2023-02-15T03:29:05;1023.2045948447445;;;0.16390782700759488;0
55014;BME280;40916;51.632;5.552;2023-02-15T03:30:06;1023.2019655850969;;;0.17152379080081204;0
55014;BME280;40916;51.632;5.552;2023-02-15T03:31:06;1023.1064981630359;;;0.15629115548870942;0
55014;BME280;40916;51.632;5.552;2023-02-15T03:32:07;1023.0959687925433;;;0.18675359626190868;0
55014;BME280;40916;51.632;5.552;2023-02-15T03:33:06;1023.1247487607926;;;0.18675359626190868;0
55014;BME280;40916;51.632;5.552;2023-02-15T03:34:06;1023.1571262337914;;;0.18675359626190868;0
55014;BME280;40916;51.632;5.552;2023-02-15T03:35:06;1023.1609474037109;;;0.21720472603717766;0
55014;BME280;40916;51.632;5.552;2023-02-15T03:36:08;1023.0215819358976;;;0.22481574310604557;0
55014;BME280;40916;51.632;5.552;2023-02-15T03:37:09;1023.0963644102828;;;0.2476445616059273;0
55014;BME280;40916;51.632;5.552;2023-02-15T03:38:07;1023.0785066374223;;;0.2780731197263435;0
55014;BME280;40916;51.632;5.552;2023-02-15T03:39:09;1023.0731590897418;;;0.29328317497129675;0
55014;BME280;40916;51.632;5.552;2023-02-15T03:40:07;1023.0057099543401;;;0.3008871475535919;0
55014;BME280;40916;51.632;5.552;2023-02-15T03:41:07;1023.03357734614;;;0.29328317497129675;0
55014;BME280;40916;51.632;5.552;2023-02-15T03:42:08;1022.9858772693042;;;0.2856784991158392;0
55014;BME280;40916;51.632;5.552;2023-02-15T03:43:10;1023.0380955518888;;;0.3008871475535919;0
55014;BME280;40916;51.632;5.552;2023-02-15T03:44:09;1022.9967450910899;;;0.3160929839415587;0
55014;BME280;40916;51.632;5.552;2023-02-15T03:45:08;1023.0471578965371;;;0.34649622890383114;0
55014;BME280;40916;51.632;5.552;2023-02-15T03:46:08;1022.9850759314223;;;0.33889647048930627;0
55014;BME280;40916;51.632;5.552;2023-02-15T03:47:08;1022.9248000271323;;;0.34649622890383114;0
55014;BME280;40916;51.632;5.552;2023-02-15T03:48:07;1022.9499913424088;;;0.34649622890383114;0
55014;BME280;40916;51.632;5.552;2023-02-15T03:49:08;1022.923898039915;;;0.33889647048930627;0
55014;BME280;40916;51.632;5.552;2023-02-15T03:50:08;1022.9292981890624;;;0.35409528586772154;0
55014;BME280;40916;51.632;5.552;2023-02-15T03:51:08;1022.8924112014166;;;0.34649622890383114;0
55014;BME280;40916;51.632;5.552;2023-02-15T03:52:08;1022.893310000466;;;0.35409528586772154;0
55014;BME280;40916;51.632;5.552;2023-02-15T03:53:09;1022.9130943646032;;;0.36929129648287073;0
55014;BME280;40916;51.632;5.552;2023-02-15T03:54:08;1022.8483134698563;;;0.36929129648287073;0
55014;BME280;40916;51.632;5.552;2023-02-15T03:55:08;1022.9868552970103;;;0.38448450441199356;0
55014;BME280;40916;51.632;5.552;2023-02-15T03:56:08;1022.9049625949257;;;0.3920800580178714;0
55014;BME280;40916;51.632;5.552;2023-02-15T03:57:09;1022.9256712484765;;;0.38448450441199356;0
55014;BME280;40916;51.632;5.552;2023-02-15T03:58:11;1022.9651927227203;;;0.4148625205108729;0
55014;BME280;40916;51.632;5.552;2023-02-15T03:59:09;1022.9670317529037;;;0.3996749117302798;0
55014;BME280;40916;51.632;5.552;2023-02-15T04:00:11;1022.9076759463578;;;0.38448450441199356;0
55014;BME280;40916;51.632;5.552;2023-02-15T04:01:11;1022.8842505812963;;;0.3996749117302798;0
55014;BME280;40916;51.632;5.552;2023-02-15T04:02:10;1022.8770522213997;;;0.3996749117302798;0
55014;BME280;40916;51.632;5.552;2023-02-15T04:03:11;1022.9327989978775;;;0.4148625205108729;0
55014;BME280;40916;51.632;5.552;2023-02-15T04:04:10;1022.8572136758463;;;0.4148625205108729;0
55014;BME280;40916;51.632;5.552;2023-02-15T04:05:09;1022.9156777627625;;;0.42245527609682654;0
55014;BME280;40916;51.632;5.552;2023-02-15T04:06:09;1022.9732675696782;;;0.42245527609682654;0
55014;BME280;40916;51.632;5.552;2023-02-15T04:07:09;1022.964313965671;;;0.4072690658082969;0
55014;BME280;40916;51.632;5.552;2023-02-15T04:08:10;1022.8537230061827;;;0.35409528586772154;0
55014;BME280;40916;51.632;5.552;2023-02-15T04:09:10;1022.890605668682;;;0.33129601036418066;0
55014;BME280;40916;51.632;5.552;2023-02-15T04:10:10;1022.9526497452152;;;0.3084904171234726;0
55014;BME280;40916;51.632;5.552;2023-02-15T04:11:10;1022.8842029066938;;;0.2780731197263435;0
55014;BME280;40916;51.632;5.552;2023-02-15T04:12:10;1022.9308574877717;;;0.2476445616059273;0
55014;BME280;40916;51.632;5.552;2023-02-15T04:13:10;1022.9198991143581;;;0.21720472603717766;0
55014;BME280;40916;51.632;5.552;2023-02-15T04:14:10;1022.9268866263806;;;0.18675359626190868;0